Terminal Aerodrome Forecast
Issued by NWS

Home | Current Version | Previous Version | Text Only | Print | Product List | Glossary On
Versions: 1 2 3 4 5 6 7 8 9 10 11 12 13 14 15 16 17 18 19 20 21
229
FTUS41 KCAR 092330
TAFHUL
TAF
KHUL 092330Z 1000/1024 36005KT 4SM BR SCT025 OVC035
      TEMPO 1000/1002 3SM -SN
     FM100200 36005KT 4SM BR BKN025
     FM100700 32006KT 4SM BR BKN030
     FM101400 22003KT P6SM BKN030=

USA.gov is the U.S. government's official web portal to all federal, state and local government web resources and services.